LFMNLFKC

Guest
Details From LFMN - Nice Cote D Azur
To LFKC - St Catherine
Flight Number -
Tags Generated
Created
Modified
Stats Distance 96 nm / 178 km
Max Altitude 0 ft / 0 m
Waypoints 2
Social Downloads 0
Likes 0
Share VATSIM

Download

Looking for another format? Having issues loading an existing format? Contact us
Advertisement - Login to hide

Notes

Generated

Route

LFMN LFKC

ID Type Via Altitude Latitude Longitude Leg Dist Tot Dist Heading (true) Name
O LFMN APT - 0 ft / 0 m 43.64661˚ 7.20258˚ - 0 nm - -
O LFKC APT - 0 ft / 0 m 42.54117˚ 8.79283˚ 96 nm 96 nm 133° / 134° -

Altitude Profile

Advertisement - Login to hide

LFMN

Details ICAO LFMN (NCE)
Name Nice/Cote d'Azur
Region France
Timezone Unknown (UTC+0.0)
Stats Elevation 12 ft / 4 m (AMSL)
Location 43.657981° 7.215362°
Runways 2
Magnetic Variation 2.015° E

METAR

LFMN 120230Z 25011KT CAVOK 10/05 Q1003 NOSIG

Decode

TAF

TAF LFMN 120200Z 1203/1309 26012KT 9999 FEW010 BKN100 BECMG 1203/1205 SCT100 BECMG 1209/1210 22015KT TEMPO 1215/1216 20025KT

Decode

Departure Runways

ID Width Length Bearing (true) Bearing (mag) Surface Threshold Offset Overrun Length
04L 148 ft / 45 m 8,427 ft / 2,569 m 44.85° 42.83° Asphalt 0 ft / 0 m 131 ft / 40 m
04R 148 ft / 45 m 9,720 ft / 2,963 m 44.60° 42.58° Asphalt 0 ft / 0 m 427 ft / 130 m
22L 148 ft / 45 m 9,720 ft / 2,963 m 224.62° 222.60° Asphalt 0 ft / 0 m 525 ft / 160 m
22R 148 ft / 45 m 8,427 ft / 2,569 m 224.87° 222.85° Asphalt 0 ft / 0 m 492 ft / 150 m

LFKC

Details ICAO LFKC (CLY)
Name St Catherine
Region France
Timezone Europe/Paris (UTC+1.0)
Stats Elevation 208 ft / 63 m (AMSL)
Location 42.530762° 8.792925°
Runways 1
Magnetic Variation 2.341° E

METAR

LFKC 120230Z AUTO 21012KT 9999 FEW039 BKN058 BKN120 13/09 Q1005 TEMPO 4000 RA FEW030TCU

Decode

TAF

TAF LFKC 120200Z 1203/1303 21010KT 9999 BKN030 BKN060 TEMPO 1203/1215 4000 RA FEW030TCU BECMG 1219/1221 21015G25KT TX14/1212Z TN11/1205Z

Decode

Destination Runways

ID Width Length Bearing (true) Bearing (mag) Surface Threshold Offset Overrun Length
18 131 ft / 40 m 7,596 ft / 2,315 m 179.60° 177.26° Concrete 0 ft / 0 m 0 ft / 0 m
36 131 ft / 40 m 7,596 ft / 2,315 m 359.60° 357.26° Concrete 656 ft / 200 m 0 ft / 0 m

Approach Navaids

Runway Type Ident Frequency Range Bearing (true) Bearing (mag) Slope Elevation
18 Localiser CLI 109.50 MHz 18 nm / 33 km 179.62° 177.27° - 230 ft / 70 m (AMSL)
18 DME CLI 109.50 MHz 18 nm / 33 km - - - 230 ft / 70 m (AMSL)

Popular Alternatives